• Join FlightAware (Why Join?)
  • Login
  • US Flag 
10:08PM EDT


 

Airport Tracker/Info


-or-


 

Live Flight TrackerFlight Track Log ✈ THY2471 ✈ 25-Oct-2013 ✈ LTAF / ADA - LTBA / IST

Flight Track Log - Related Links

Times and Time Zones

All times are in EDT time to prevent confusion due to time zone crossing. See the THY2471 flight status page for this flight to view local times or setup timezone preferences in your user account.

Time Position Orientation Groundspeed Altitude Reporting Facility
EDT Latitude Longitude Course Direction KTS MPH feet Rate Location/Type
03:59PM 37.6428 34.2977 311° West  Level Estimated
04:00PM 37.7024 34.2075 310° West  Level Estimated
04:01PM 37.7620 34.1172 310° West  Level Estimated
04:02PM 37.8215 34.0267 310° West  Level Estimated
04:03PM 37.8810 33.9361 310° West  Level Estimated
04:04PM 37.9403 33.8453 310° West  Level Estimated
04:05PM 37.9996 33.7543 310° West  Level Estimated
04:06PM 38.0589 33.6633 310° West  Level Estimated
04:07PM 38.1180 33.5720 310° West  Level Estimated
04:08PM 38.1771 33.4807 309° West  Level Estimated
04:09PM 38.2361 33.3892 309° West  Level Estimated
04:10PM 38.2951 33.2975 309° West  Level Estimated
04:11PM 38.3540 33.2057 309° West  Level Estimated
04:12PM 38.4128 33.1137 309° West  Level Estimated
04:13PM 38.4715 33.0216 309° West  Level Estimated
04:14PM 38.5302 32.9294 309° West  Level Estimated
04:15PM 38.5888 32.8369 309° West  Level Estimated
04:16PM 38.6473 32.7444 309° West  Level Estimated
04:17PM 38.7057 32.6517 309° West  Level Estimated
04:18PM 38.7641 32.5588 309° West  Level Estimated
04:19PM 38.8224 32.4658 309° West  Level Estimated
04:20PM 38.8806 32.3726 309° West  Level Estimated
04:21PM 38.9388 32.2793 309° West  Level Estimated
04:22PM 38.9969 32.1858 309° West  Level Estimated
04:23PM 39.0549 32.0922 309° West  Level Estimated
04:24PM 39.1128 31.9984 309° West  Level Estimated
04:25PM 39.1706 31.9045 308° West  Level Estimated
04:26PM 39.2284 31.8104 308° West  Level Estimated
04:27PM 39.2861 31.7161 308° West  Level Estimated
04:28PM 39.3437 31.6217 308° West  Level Estimated
04:29PM 39.4013 31.5272 308° West  Level Estimated
04:30PM 39.4588 31.4324 308° West  Level Estimated
04:31PM 39.5162 31.3376 308° West  Level Estimated
04:32PM 39.5735 31.2425 308° West  Level Estimated
04:33PM 39.6307 31.1474 308° West  Level Estimated
04:34PM 39.6879 31.0520 308° West  Level Estimated
04:35PM 39.7449 30.9565 308° West  Level Estimated
04:36PM 39.8019 30.8608 308° West  Level Estimated
04:37PM 39.8589 30.7650 308° West  Level Estimated
04:38PM 39.9157 30.6691 308° West  Level Estimated
04:39PM 39.9725 30.5729 308° West  Level Estimated
04:40PM 40.0292 30.4766 308° West  Level Estimated
04:41PM 40.0858 30.3801 308° West  Level Estimated
04:42PM 40.1423 30.2835 307° West  Level Estimated
04:43PM 40.1988 30.1868 307° West  Level Estimated
04:44PM 40.2551 30.0898 307° West  Level Estimated
04:45PM 40.3114 29.9927 307° West  Level Estimated
04:46PM 40.3676 29.8955 307° West  Level Estimated
04:47PM 40.4238 29.7980 307° West  Level Estimated
04:48PM 40.4798 29.7004 307° West  Level Estimated
04:49PM 40.5358 29.6027 307° West  Level Estimated
04:50PM 40.5916 29.5048 307° West  Level Estimated
04:51PM 40.6474 29.4067 307° West  Level Estimated
04:52PM 40.7031 29.3085 307° West  Level Estimated
04:53PM 40.7588 29.2101 307° West  Level Estimated
04:54PM 40.8143 29.1115 307° West  Level Estimated
04:55PM 40.8698 29.0127 307° West  Level Estimated
04:56PM 40.9251 28.9138 307° West  Level Estimated
04:57PM 40.9769 28.8211 306° West  Level Estimated
04:58PM 40.9769 28.8211 21° North  Level Estimated
04:59PM 40.9769 28.8211 21° North  Level Estimated
05:00PM 40.9769 28.8211 21° North  Level Estimated
05:01PM 40.9769 28.8211 21° North  Level Estimated
05:02PM 40.9769 28.8211 21° North  Level Estimated
05:03PM 40.9769 28.8211 21° North  Level Estimated
05:04PM 40.9769 28.8211 21° North  Level Estimated
05:05PM 40.9769 28.8211 21° North  Level Estimated
05:06PM 40.9769 28.8211 21° North  Level Estimated
05:07PM 40.9769 28.8211 21° North  Level Estimated
05:08PM 40.9769 28.8211 21° North  Level Estimated
05:09PM 40.9769 28.8211 21° North  Level Estimated
05:10PM 40.9769 28.8211 21° North  Level Estimated
05:11PM 40.9769 28.8211 21° North  Level Estimated
05:12PM 40.9769 28.8211 21° North  Level Estimated
05:13PM 40.9769 28.8211 21° North  Level Estimated